sensor_id;sensor_type;location;lat;lon;timestamp;pressure;altitude;pressure_sealevel;temperature;humidity
61961;BME280;47923;42.506;24.192;2023-12-14T00:00:11;94745.63;;;0.23;99.36
61961;BME280;47923;42.506;24.192;2023-12-14T00:02:37;94744.00;;;0.05;99.81
61961;BME280;47923;42.506;24.192;2023-12-14T00:05:03;94681.28;;;-0.22;100.00
61961;BME280;47923;42.506;24.192;2023-12-14T00:07:29;94598.41;;;-0.68;99.67
61961;BME280;47923;42.506;24.192;2023-12-14T00:09:54;94742.78;;;0.19;99.74
61961;BME280;47923;42.506;24.192;2023-12-14T00:12:19;94747.31;;;0.19;99.90
61961;BME280;47923;42.506;24.192;2023-12-14T00:14:45;94753.09;;;0.21;99.73
61961;BME280;47923;42.506;24.192;2023-12-14T00:17:10;94722.88;;;-0.01;100.00
61961;BME280;47923;42.506;24.192;2023-12-14T00:19:36;94729.97;;;0.21;100.00
61961;BME280;47923;42.506;24.192;2023-12-14T00:22:01;94713.06;;;0.00;100.00
61961;BME280;47923;42.506;24.192;2023-12-14T00:24:27;94731.69;;;0.17;100.00
61961;BME280;47923;42.506;24.192;2023-12-14T00:26:52;94495.69;;;-1.42;100.00
61961;BME280;47923;42.506;24.192;2023-12-14T00:29:18;94487.56;;;-1.54;100.00
61961;BME280;47923;42.506;24.192;2023-12-14T00:31:43;94754.31;;;0.06;100.00
61961;BME280;47923;42.506;24.192;2023-12-14T00:34:09;94710.94;;;-0.29;100.00
61961;BME280;47923;42.506;24.192;2023-12-14T00:36:34;94747.31;;;0.10;100.00
61961;BME280;47923;42.506;24.192;2023-12-14T00:39:00;94728.25;;;0.08;100.00
61961;BME280;47923;42.506;24.192;2023-12-14T00:41:25;94726.69;;;0.16;100.00
61961;BME280;47923;42.506;24.192;2023-12-14T00:43:51;94642.06;;;-0.43;100.00
61961;BME280;47923;42.506;24.192;2023-12-14T00:46:16;94544.88;;;-0.87;100.00
61961;BME280;47923;42.506;24.192;2023-12-14T00:48:41;94710.13;;;0.27;100.00
61961;BME280;47923;42.506;24.192;2023-12-14T00:51:07;94713.56;;;0.28;100.00
61961;BME280;47923;42.506;24.192;2023-12-14T00:53:32;94686.66;;;0.04;100.00
61961;BME280;47923;42.506;24.192;2023-12-14T00:55:58;94344.81;;;-2.35;100.00
61961;BME280;47923;42.506;24.192;2023-12-14T00:58:23;94320.16;;;-2.44;100.00
61961;BME280;47923;42.506;24.192;2023-12-14T01:00:48;94471.81;;;-1.50;100.00
61961;BME280;47923;42.506;24.192;2023-12-14T01:03:14;94715.44;;;0.10;100.00
61961;BME280;47923;42.506;24.192;2023-12-14T01:05:39;94721.06;;;0.09;100.00
61961;BME280;47923;42.506;24.192;2023-12-14T01:08:05;94739.16;;;0.07;100.00
61961;BME280;47923;42.506;24.192;2023-12-14T01:10:30;94275.47;;;-2.85;100.00
61961;BME280;47923;42.506;24.192;2023-12-14T01:12:56;94630.31;;;-0.50;100.00
61961;BME280;47923;42.506;24.192;2023-12-14T01:15:21;94625.47;;;-0.48;100.00
61961;BME280;47923;42.506;24.192;2023-12-14T01:17:47;94462.59;;;-1.61;100.00
61961;BME280;47923;42.506;24.192;2023-12-14T01:20:12;94730.91;;;0.08;100.00
61961;BME280;47923;42.506;24.192;2023-12-14T01:22:38;94448.53;;;-1.62;100.00
61961;BME280;47923;42.506;24.192;2023-12-14T01:25:03;94708.88;;;0.08;100.00
61961;BME280;47923;42.506;24.192;2023-12-14T01:27:29;94714.47;;;0.06;100.00
61961;BME280;47923;42.506;24.192;2023-12-14T01:29:54;94691.50;;;-0.07;100.00
61961;BME280;47923;42.506;24.192;2023-12-14T01:32:20;94498.13;;;-1.23;100.00
61961;BME280;47923;42.506;24.192;2023-12-14T01:34:45;94638.19;;;-0.37;100.00
61961;BME280;47923;42.506;24.192;2023-12-14T01:37:11;94602.50;;;-1.01;100.00
61961;BME280;47923;42.506;24.192;2023-12-14T01:39:36;94735.88;;;0.01;100.00
61961;BME280;47923;42.506;24.192;2023-12-14T01:42:02;94596.13;;;-0.52;100.00
61961;BME280;47923;42.506;24.192;2023-12-14T01:44:27;94691.84;;;0.09;100.00
61961;BME280;47923;42.506;24.192;2023-12-14T01:46:52;94723.84;;;0.12;100.00
61961;BME280;47923;42.506;24.192;2023-12-14T01:49:18;93958.66;;;-4.59;100.00
61961;BME280;47923;42.506;24.192;2023-12-14T01:51:43;94683.88;;;0.17;100.00
61961;BME280;47923;42.506;24.192;2023-12-14T01:54:09;94692.31;;;0.19;100.00
61961;BME280;47923;42.506;24.192;2023-12-14T01:56:34;94590.53;;;-0.42;100.00
61961;BME280;47923;42.506;24.192;2023-12-14T01:59:00;94683.41;;;0.15;100.00
61961;BME280;47923;42.506;24.192;2023-12-14T02:01:39;94564.44;;;-0.66;100.00
61961;BME280;47923;42.506;24.192;2023-12-14T02:04:07;94685.41;;;0.01;100.00
61961;BME280;47923;42.506;24.192;2023-12-14T02:06:32;94695.28;;;0.09;100.00
61961;BME280;47923;42.506;24.192;2023-12-14T02:08:58;94584.84;;;-0.66;100.00
61961;BME280;47923;42.506;24.192;2023-12-14T02:11:23;94707.16;;;0.12;100.00
61961;BME280;47923;42.506;24.192;2023-12-14T02:13:49;94708.06;;;0.07;100.00
61961;BME280;47923;42.506;24.192;2023-12-14T02:16:14;94698.38;;;0.03;100.00
61961;BME280;47923;42.506;24.192;2023-12-14T02:18:40;94708.69;;;-0.05;100.00
61961;BME280;47923;42.506;24.192;2023-12-14T02:21:06;94457.72;;;-1.68;100.00
61961;BME280;47923;42.506;24.192;2023-12-14T02:23:31;94709.59;;;-0.09;100.00
61961;BME280;47923;42.506;24.192;2023-12-14T02:25:56;94694.44;;;-0.09;100.00
61961;BME280;47923;42.506;24.192;2023-12-14T02:28:22;94639.56;;;-0.39;100.00
61961;BME280;47923;42.506;24.192;2023-12-14T02:30:47;94419.22;;;-1.74;100.00
61961;BME280;47923;42.506;24.192;2023-12-14T02:33:13;94679.44;;;-0.13;100.00
61961;BME280;47923;42.506;24.192;2023-12-14T02:35:39;94575.72;;;-0.91;100.00
61961;BME280;47923;42.506;24.192;2023-12-14T02:38:05;94702.47;;;0.09;100.00
61961;BME280;47923;42.506;24.192;2023-12-14T02:40:31;94681.81;;;0.06;100.00
61961;BME280;47923;42.506;24.192;2023-12-14T02:42:56;94708.88;;;0.08;100.00
61961;BME280;47923;42.506;24.192;2023-12-14T02:45:21;94630.50;;;-0.38;100.00
61961;BME280;47923;42.506;24.192;2023-12-14T02:47:47;94604.38;;;-0.53;100.00
61961;BME280;47923;42.506;24.192;2023-12-14T02:50:14;94537.16;;;-1.06;100.00
61961;BME280;47923;42.506;24.192;2023-12-14T02:52:40;93966.97;;;-4.66;100.00
61961;BME280;47923;42.506;24.192;2023-12-14T02:55:05;94420.47;;;-1.72;100.00
61961;BME280;47923;42.506;24.192;2023-12-14T02:57:31;94577.50;;;-0.69;100.00
61961;BME280;47923;42.506;24.192;2023-12-14T02:59:57;94594.41;;;-0.57;100.00
61961;BME280;47923;42.506;24.192;2023-12-14T03:02:23;94681.50;;;0.07;100.00
61961;BME280;47923;42.506;24.192;2023-12-14T03:04:48;94667.44;;;0.07;100.00
61961;BME280;47923;42.506;24.192;2023-12-14T03:07:14;94686.81;;;0.07;100.00
61961;BME280;47923;42.506;24.192;2023-12-14T03:09:40;94672.47;;;0.08;100.00
61961;BME280;47923;42.506;24.192;2023-12-14T03:12:10;94611.25;;;-0.61;100.00
61961;BME280;47923;42.506;24.192;2023-12-14T03:14:36;94220.50;;;-2.97;100.00
61961;BME280;47923;42.506;24.192;2023-12-14T03:17:01;94524.34;;;-1.04;100.00
61961;BME280;47923;42.506;24.192;2023-12-14T03:19:28;94477.16;;;-1.42;100.00
61961;BME280;47923;42.506;24.192;2023-12-14T03:21:53;94643.84;;;-0.12;100.00
61961;BME280;47923;42.506;24.192;2023-12-14T03:24:19;94689.94;;;0.01;100.00
61961;BME280;47923;42.506;24.192;2023-12-14T03:26:44;94692.13;;;-0.02;100.00
61961;BME280;47923;42.506;24.192;2023-12-14T03:29:10;94639.47;;;-0.08;100.00
61961;BME280;47923;42.506;24.192;2023-12-14T03:31:35;94684.63;;;0.01;100.00
61961;BME280;47923;42.506;24.192;2023-12-14T03:34:01;94647.38;;;-0.34;100.00
61961;BME280;47923;42.506;24.192;2023-12-14T03:36:28;94123.38;;;-3.53;100.00
61961;BME280;47923;42.506;24.192;2023-12-14T03:38:54;94668.97;;;-0.10;100.00
61961;BME280;47923;42.506;24.192;2023-12-14T03:41:21;94681.50;;;-0.02;100.00
61961;BME280;47923;42.506;24.192;2023-12-14T03:43:46;94686.34;;;-0.04;100.00
61961;BME280;47923;42.506;24.192;2023-12-14T03:46:12;94581.41;;;-0.67;100.00
61961;BME280;47923;42.506;24.192;2023-12-14T03:48:37;94675.06;;;-0.18;100.00
61961;BME280;47923;42.506;24.192;2023-12-14T03:51:03;94674.78;;;0.01;100.00
61961;BME280;47923;42.506;24.192;2023-12-14T03:53:29;94556.59;;;-0.79;100.00
61961;BME280;47923;42.506;24.192;2023-12-14T03:55:55;94306.47;;;-2.46;100.00
61961;BME280;47923;42.506;24.192;2023-12-14T03:58:21;94579.41;;;-0.61;100.00
61961;BME280;47923;42.506;24.192;2023-12-14T04:00:46;94683.69;;;0.05;100.00
61961;BME280;47923;42.506;24.192;2023-12-14T04:03:12;94701.03;;;0.03;100.00
61961;BME280;47923;42.506;24.192;2023-12-14T04:05:37;94630.66;;;-0.43;100.00
61961;BME280;47923;42.506;24.192;2023-12-14T04:08:04;94682.28;;;-0.01;100.00
61961;BME280;47923;42.506;24.192;2023-12-14T04:10:30;94693.38;;;0.01;100.00
61961;BME280;47923;42.506;24.192;2023-12-14T04:12:55;94706.34;;;0.03;100.00
61961;BME280;47923;42.506;24.192;2023-12-14T04:15:21;94640.19;;;-0.42;100.00
61961;BME280;47923;42.506;24.192;2023-12-14T04:17:46;94700.56;;;0.01;100.00
61961;BME280;47923;42.506;24.192;2023-12-14T04:20:13;94113.44;;;-3.79;100.00
61961;BME280;47923;42.506;24.192;2023-12-14T04:22:38;94692.44;;;-0.03;100.00
61961;BME280;47923;42.506;24.192;2023-12-14T04:25:04;94495.56;;;-1.36;100.00
61961;BME280;47923;42.506;24.192;2023-12-14T04:27:29;94605.88;;;-0.78;100.00
61961;BME280;47923;42.506;24.192;2023-12-14T04:29:55;94204.88;;;-3.16;100.00
61961;BME280;47923;42.506;24.192;2023-12-14T04:32:20;94276.38;;;-2.90;100.00
61961;BME280;47923;42.506;24.192;2023-12-14T04:34:46;94689.75;;;-0.12;100.00
61961;BME280;47923;42.506;24.192;2023-12-14T04:37:12;94504.28;;;-1.36;100.00
61961;BME280;47923;42.506;24.192;2023-12-14T04:39:37;94695.38;;;-0.13;100.00
61961;BME280;47923;42.506;24.192;2023-12-14T04:42:03;94495.09;;;-1.38;100.00
61961;BME280;47923;42.506;24.192;2023-12-14T04:44:28;94625.47;;;-0.57;100.00
61961;BME280;47923;42.506;24.192;2023-12-14T04:46:54;94631.25;;;-0.46;100.00
61961;BME280;47923;42.506;24.192;2023-12-14T04:49:19;94672.41;;;-0.18;100.00
61961;BME280;47923;42.506;24.192;2023-12-14T04:51:45;94676.16;;;-0.19;100.00
61961;BME280;47923;42.506;24.192;2023-12-14T04:54:10;94618.53;;;-0.67;100.00
61961;BME280;47923;42.506;24.192;2023-12-14T04:56:36;94684.88;;;-0.27;100.00
61961;BME280;47923;42.506;24.192;2023-12-14T04:59:01;94542.84;;;-1.21;100.00
61961;BME280;47923;42.506;24.192;2023-12-14T05:01:28;94681.25;;;-0.31;100.00
61961;BME280;47923;42.506;24.192;2023-12-14T05:03:53;94668.84;;;-0.53;100.00
61961;BME280;47923;42.506;24.192;2023-12-14T05:06:19;94677.97;;;-0.37;100.00
61961;BME280;47923;42.506;24.192;2023-12-14T05:08:44;94553.31;;;-1.25;100.00
61961;BME280;47923;42.506;24.192;2023-12-14T05:11:11;94678.75;;;-0.36;100.00
61961;BME280;47923;42.506;24.192;2023-12-14T05:13:37;94637.63;;;-0.56;100.00
61961;BME280;47923;42.506;24.192;2023-12-14T05:16:03;94702.34;;;-0.35;100.00
61961;BME280;47923;42.506;24.192;2023-12-14T05:18:28;94627.97;;;-0.52;100.00
61961;BME280;47923;42.506;24.192;2023-12-14T05:20:55;94277.25;;;-2.94;100.00
61961;BME280;47923;42.506;24.192;2023-12-14T05:23:21;94164.31;;;-3.65;100.00
61961;BME280;47923;42.506;24.192;2023-12-14T05:25:46;94622.53;;;-0.47;100.00
61961;BME280;47923;42.506;24.192;2023-12-14T05:28:12;94688.78;;;-0.24;100.00
61961;BME280;47923;42.506;24.192;2023-12-14T05:30:38;94596.53;;;-0.76;100.00
61961;BME280;47923;42.506;24.192;2023-12-14T05:33:03;94671.75;;;-0.23;100.00
61961;BME280;47923;42.506;24.192;2023-12-14T05:35:29;94578.22;;;-0.95;100.00
61961;BME280;47923;42.506;24.192;2023-12-14T05:37:54;94606.72;;;-0.61;100.00
61961;BME280;47923;42.506;24.192;2023-12-14T05:40:20;94682.56;;;-0.20;100.00
61961;BME280;47923;42.506;24.192;2023-12-14T05:42:45;94658.91;;;-0.39;100.00
61961;BME280;47923;42.506;24.192;2023-12-14T05:45:11;94653.28;;;-0.37;100.00
61961;BME280;47923;42.506;24.192;2023-12-14T05:47:36;94590.56;;;-0.81;100.00
61961;BME280;47923;42.506;24.192;2023-12-14T05:50:03;94695.19;;;-0.17;100.00
61961;BME280;47923;42.506;24.192;2023-12-14T05:52:28;94695.19;;;-0.17;100.00
61961;BME280;47923;42.506;24.192;2023-12-14T05:54:54;94518.63;;;-1.37;100.00
61961;BME280;47923;42.506;24.192;2023-12-14T05:57:19;94472.41;;;-1.84;100.00
61961;BME280;47923;42.506;24.192;2023-12-14T05:59:45;94632.47;;;-0.61;100.00
61961;BME280;47923;42.506;24.192;2023-12-14T06:02:10;94690.53;;;-0.11;100.00
61961;BME280;47923;42.506;24.192;2023-12-14T06:04:36;94673.50;;;-0.10;100.00
61961;BME280;47923;42.506;24.192;2023-12-14T06:07:01;94524.50;;;-1.09;100.00
61961;BME280;47923;42.506;24.192;2023-12-14T06:09:27;94630.34;;;-0.42;100.00
61961;BME280;47923;42.506;24.192;2023-12-14T06:12:02;94525.31;;;-1.00;100.00
61961;BME280;47923;42.506;24.192;2023-12-14T06:14:28;94709.66;;;0.08;100.00
61961;BME280;47923;42.506;24.192;2023-12-14T06:16:53;94685.09;;;-0.06;100.00
61961;BME280;47923;42.506;24.192;2023-12-14T06:19:19;94707.00;;;0.17;100.00
61961;BME280;47923;42.506;24.192;2023-12-14T06:21:44;94716.84;;;0.25;100.00
61961;BME280;47923;42.506;24.192;2023-12-14T06:24:09;94700.16;;;0.33;100.00
61961;BME280;47923;42.506;24.192;2023-12-14T06:26:35;94612.44;;;-0.19;100.00
61961;BME280;47923;42.506;24.192;2023-12-14T06:29:05;94704.06;;;0.53;100.00
61961;BME280;47923;42.506;24.192;2023-12-14T06:31:30;94602.91;;;-0.03;100.00
61961;BME280;47923;42.506;24.192;2023-12-14T06:33:56;94707.34;;;0.76;100.00
61961;BME280;47923;42.506;24.192;2023-12-14T06:36:22;94505.13;;;-0.61;100.00
61961;BME280;47923;42.506;24.192;2023-12-14T06:38:52;94718.59;;;0.90;100.00
61961;BME280;47923;42.506;24.192;2023-12-14T06:41:21;94674.84;;;0.53;100.00
61961;BME280;47923;42.506;24.192;2023-12-14T06:43:48;94722.50;;;0.93;100.00
61961;BME280;47923;42.506;24.192;2023-12-14T06:46:14;94748.97;;;0.98;100.00
61961;BME280;47923;42.506;24.192;2023-12-14T06:48:39;94542.50;;;-0.14;99.77
61961;BME280;47923;42.506;24.192;2023-12-14T06:51:05;94628.84;;;0.44;99.10
61961;BME280;47923;42.506;24.192;2023-12-14T06:53:30;94738.44;;;1.27;98.84
61961;BME280;47923;42.506;24.192;2023-12-14T06:55:55;94732.16;;;1.41;98.68
61961;BME280;47923;42.506;24.192;2023-12-14T06:58:21;94453.19;;;-0.36;98.36
61961;BME280;47923;42.506;24.192;2023-12-14T07:00:46;94559.31;;;0.42;97.47
61961;BME280;47923;42.506;24.192;2023-12-14T07:03:13;94735.94;;;1.78;96.91
61961;BME280;47923;42.506;24.192;2023-12-14T07:05:39;94410.53;;;-0.31;95.27
61961;BME280;47923;42.506;24.192;2023-12-14T07:08:04;94660.00;;;1.33;95.45
61961;BME280;47923;42.506;24.192;2023-12-14T07:10:30;94734.13;;;1.99;94.72
61961;BME280;47923;42.506;24.192;2023-12-14T07:12:55;94738.31;;;2.09;94.46
61961;BME280;47923;42.506;24.192;2023-12-14T07:15:21;94726.13;;;2.29;94.32
61961;BME280;47923;42.506;24.192;2023-12-14T07:17:46;94717.22;;;2.25;93.72
61961;BME280;47923;42.506;24.192;2023-12-14T07:20:12;94648.50;;;2.09;92.79
61961;BME280;47923;42.506;24.192;2023-12-14T07:22:37;94555.94;;;1.56;91.78
61961;BME280;47923;42.506;24.192;2023-12-14T07:25:03;94691.75;;;2.57;90.59
61961;BME280;47923;42.506;24.192;2023-12-14T07:27:29;94732.91;;;3.10;90.29
61961;BME280;47923;42.506;24.192;2023-12-14T07:29:55;94695.16;;;2.99;89.34
61961;BME280;47923;42.506;24.192;2023-12-14T07:32:21;94735.63;;;3.22;88.86
61961;BME280;47923;42.506;24.192;2023-12-14T07:34:47;94720.50;;;3.26;88.45
61961;BME280;47923;42.506;24.192;2023-12-14T07:37:12;94700.81;;;3.18;87.80
61961;BME280;47923;42.506;24.192;2023-12-14T07:39:38;94753.91;;;3.32;88.46
61961;BME280;47923;42.506;24.192;2023-12-14T07:42:04;94713.78;;;3.41;88.04
61961;BME280;47923;42.506;24.192;2023-12-14T07:44:30;94699.97;;;3.51;87.95
61961;BME280;47923;42.506;24.192;2023-12-14T07:46:59;94712.41;;;3.92;85.87
61961;BME280;47923;42.506;24.192;2023-12-14T07:49:25;94729.44;;;4.00;85.77
61961;BME280;47923;42.506;24.192;2023-12-14T07:51:51;94729.00;;;4.10;85.96
61961;BME280;47923;42.506;24.192;2023-12-14T07:54:17;94712.19;;;4.22;85.30
61961;BME280;47923;42.506;24.192;2023-12-14T07:56:44;94488.00;;;2.58;84.12
61961;BME280;47923;42.506;24.192;2023-12-14T07:59:11;94416.09;;;2.49;83.54
61961;BME280;47923;42.506;24.192;2023-12-14T08:01:36;94555.00;;;3.26;83.73
61961;BME280;47923;42.506;24.192;2023-12-14T08:04:02;94728.19;;;4.58;83.73
61961;BME280;47923;42.506;24.192;2023-12-14T08:06:28;94745.78;;;4.71;83.44
61961;BME280;47923;42.506;24.192;2023-12-14T08:08:55;94671.94;;;4.30;82.78
61961;BME280;47923;42.506;24.192;2023-12-14T08:11:23;94729.38;;;4.73;81.68
61961;BME280;47923;42.506;24.192;2023-12-14T08:13:48;94619.44;;;3.98;82.57
61961;BME280;47923;42.506;24.192;2023-12-14T08:16:14;94736.41;;;5.06;82.73
61961;BME280;47923;42.506;24.192;2023-12-14T08:18:40;94638.63;;;4.68;81.64
61961;BME280;47923;42.506;24.192;2023-12-14T08:21:07;94511.94;;;4.04;81.12
61961;BME280;47923;42.506;24.192;2023-12-14T08:23:33;94744.78;;;6.04;80.07
61961;BME280;47923;42.506;24.192;2023-12-14T08:25:58;94752.63;;;6.28;77.83
61961;BME280;47923;42.506;24.192;2023-12-14T08:28:24;94420.53;;;4.27;76.36
61961;BME280;47923;42.506;24.192;2023-12-14T08:30:50;94687.81;;;6.42;75.59
61961;BME280;47923;42.506;24.192;2023-12-14T08:33:16;94691.47;;;6.34;75.54
61961;BME280;47923;42.506;24.192;2023-12-14T08:35:41;94757.69;;;6.65;76.38
61961;BME280;47923;42.506;24.192;2023-12-14T08:38:07;94719.53;;;6.56;75.55
61961;BME280;47923;42.506;24.192;2023-12-14T08:40:32;94703.59;;;6.12;78.30
61961;BME280;47923;42.506;24.192;2023-12-14T08:42:58;94739.31;;;6.48;77.50
61961;BME280;47923;42.506;24.192;2023-12-14T08:45:24;94734.22;;;6.78;77.92
61961;BME280;47923;42.506;24.192;2023-12-14T08:47:49;94728.56;;;6.83;76.92
61961;BME280;47923;42.506;24.192;2023-12-14T08:50:15;94632.19;;;6.58;76.23
61961;BME280;47923;42.506;24.192;2023-12-14T08:52:41;94732.09;;;7.64;75.63
61961;BME280;47923;42.506;24.192;2023-12-14T08:55:07;94622.59;;;7.19;74.42
61961;BME280;47923;42.506;24.192;2023-12-14T08:57:33;94729.97;;;7.96;74.00
61961;BME280;47923;42.506;24.192;2023-12-14T08:59:59;94692.75;;;8.25;72.84
61961;BME280;47923;42.506;24.192;2023-12-14T09:02:24;94446.88;;;6.97;71.30
61961;BME280;47923;42.506;24.192;2023-12-14T09:04:50;94562.72;;;7.41;68.66
61961;BME280;47923;42.506;24.192;2023-12-14T09:07:16;94715.34;;;8.43;69.61
61961;BME280;47923;42.506;24.192;2023-12-14T09:09:42;94712.28;;;8.68;69.68
61961;BME280;47923;42.506;24.192;2023-12-14T09:12:07;94657.00;;;8.51;69.21
61961;BME280;47923;42.506;24.192;2023-12-14T09:14:33;94700.66;;;8.64;69.46
61961;BME280;47923;42.506;24.192;2023-12-14T09:16:58;94700.66;;;8.37;71.20
61961;BME280;47923;42.506;24.192;2023-12-14T09:19:24;94572.06;;;7.47;71.02
61961;BME280;47923;42.506;24.192;2023-12-14T09:21:49;94317.69;;;6.26;70.61
61961;BME280;47923;42.506;24.192;2023-12-14T09:24:15;94576.28;;;7.98;70.24
61961;BME280;47923;42.506;24.192;2023-12-14T09:26:40;94681.75;;;8.34;70.09
61961;BME280;47923;42.506;24.192;2023-12-14T09:29:06;94693.72;;;8.63;70.05
61961;BME280;47923;42.506;24.192;2023-12-14T09:31:32;94216.84;;;5.34;69.76
61961;BME280;47923;42.506;24.192;2023-12-14T09:33:57;94615.09;;;8.23;69.55
61961;BME280;47923;42.506;24.192;2023-12-14T09:36:23;94674.94;;;8.96;69.32
61961;BME280;47923;42.506;24.192;2023-12-14T09:38:49;94562.25;;;8.68;69.42
61961;BME280;47923;42.506;24.192;2023-12-14T09:41:14;94642.34;;;9.46;67.66
61961;BME280;47923;42.506;24.192;2023-12-14T09:43:40;94611.84;;;9.79;66.32
61961;BME280;47923;42.506;24.192;2023-12-14T09:46:06;94663.22;;;10.41;64.94
61961;BME280;47923;42.506;24.192;2023-12-14T09:48:33;94629.44;;;10.13;63.91
61961;BME280;47923;42.506;24.192;2023-12-14T09:50:58;94644.31;;;10.37;63.99
61961;BME280;47923;42.506;24.192;2023-12-14T09:53:24;94448.00;;;9.65;62.21
61961;BME280;47923;42.506;24.192;2023-12-14T09:55:49;94616.94;;;11.26;61.68
61961;BME280;47923;42.506;24.192;2023-12-14T09:58:15;94463.91;;;10.75;58.62
61961;BME280;47923;42.506;24.192;2023-12-14T10:00:41;94665.00;;;11.97;58.43
61961;BME280;47923;42.506;24.192;2023-12-14T10:03:25;94542.38;;;11.28;58.14
61961;BME280;47923;42.506;24.192;2023-12-14T10:05:54;94634.06;;;12.23;58.09
61961;BME280;47923;42.506;24.192;2023-12-14T10:08:19;94636.72;;;12.48;55.60
61961;BME280;47923;42.506;24.192;2023-12-14T10:10:50;94602.72;;;12.11;56.01
61961;BME280;47923;42.506;24.192;2023-12-14T10:13:18;94605.06;;;12.16;55.83
61961;BME280;47923;42.506;24.192;2023-12-14T10:15:45;94654.53;;;12.59;55.86
61961;BME280;47923;42.506;24.192;2023-12-14T10:18:11;94664.88;;;13.04;53.74
61961;BME280;47923;42.506;24.192;2023-12-14T10:20:37;94585.41;;;13.14;55.31
61961;BME280;47923;42.506;24.192;2023-12-14T10:23:07;94582.31;;;13.15;51.40
61961;BME280;47923;42.506;24.192;2023-12-14T10:25:32;94597.84;;;13.04;51.44
61961;BME280;47923;42.506;24.192;2023-12-14T10:27:58;94658.78;;;13.66;51.54
61961;BME280;47923;42.506;24.192;2023-12-14T10:30:25;94656.19;;;14.10;52.95
61961;BME280;47923;42.506;24.192;2023-12-14T10:32:50;94587.63;;;13.40;50.83
61961;BME280;47923;42.506;24.192;2023-12-14T10:35:16;94650.88;;;13.93;53.50
61961;BME280;47923;42.506;24.192;2023-12-14T10:37:42;94653.84;;;14.13;50.13
61961;BME280;47923;42.506;24.192;2023-12-14T10:40:13;94454.88;;;12.49;52.43
61961;BME280;47923;42.506;24.192;2023-12-14T10:42:42;94663.34;;;13.83;51.12
61961;BME280;47923;42.506;24.192;2023-12-14T10:45:11;94537.59;;;12.71;52.47
61961;BME280;47923;42.506;24.192;2023-12-14T10:47:39;94657.59;;;13.74;55.60
61961;BME280;47923;42.506;24.192;2023-12-14T10:50:10;94578.50;;;13.02;52.67
61961;BME280;47923;42.506;24.192;2023-12-14T10:52:38;94530.59;;;12.70;53.13
61961;BME280;47923;42.506;24.192;2023-12-14T10:55:07;94624.16;;;13.11;54.00
61961;BME280;47923;42.506;24.192;2023-12-14T10:57:35;94561.91;;;12.93;54.74
61961;BME280;47923;42.506;24.192;2023-12-14T11:00:02;94641.94;;;13.19;54.65
61961;BME280;47923;42.506;24.192;2023-12-14T11:02:30;94621.84;;;13.06;54.38
61961;BME280;47923;42.506;24.192;2023-12-14T11:05:02;94640.72;;;13.45;56.80
61961;BME280;47923;42.506;24.192;2023-12-14T11:10:12;94633.50;;;13.83;53.62
61961;BME280;47923;42.506;24.192;2023-12-14T11:12:38;94536.22;;;13.15;54.18
61961;BME280;47923;42.506;24.192;2023-12-14T11:15:06;94593.66;;;13.66;54.04
61961;BME280;47923;42.506;24.192;2023-12-14T11:17:32;94604.56;;;13.59;55.14
61961;BME280;47923;42.506;24.192;2023-12-14T11:20:26;94623.19;;;13.57;54.79
61961;BME280;47923;42.506;24.192;2023-12-14T11:22:55;94524.09;;;12.57;56.84
61961;BME280;47923;42.506;24.192;2023-12-14T11:25:22;94508.69;;;12.36;56.50
61961;BME280;47923;42.506;24.192;2023-12-14T11:27:48;94581.31;;;12.77;57.21
61961;BME280;47923;42.506;24.192;2023-12-14T11:30:15;94634.69;;;12.94;57.26
61961;BME280;47923;42.506;24.192;2023-12-14T11:32:41;94646.69;;;12.97;57.72
61961;BME280;47923;42.506;24.192;2023-12-14T11:35:07;94641.59;;;13.24;57.63
61961;BME280;47923;42.506;24.192;2023-12-14T11:37:35;94375.91;;;11.42;58.08
61961;BME280;47923;42.506;24.192;2023-12-14T11:40:02;94475.09;;;12.16;57.74
61961;BME280;47923;42.506;24.192;2023-12-14T11:42:30;94547.75;;;12.50;57.65
61961;BME280;47923;42.506;24.192;2023-12-14T11:44:57;94489.41;;;12.13;57.77
61961;BME280;47923;42.506;24.192;2023-12-14T11:47:22;94384.81;;;11.10;57.86
61961;BME280;47923;42.506;24.192;2023-12-14T11:49:47;94532.34;;;12.04;58.15
61961;BME280;47923;42.506;24.192;2023-12-14T11:52:13;94658.31;;;12.94;58.46
61961;BME280;47923;42.506;24.192;2023-12-14T11:54:38;94645.94;;;12.89;57.97
61961;BME280;47923;42.506;24.192;2023-12-14T11:57:04;94651.34;;;12.89;58.74
61961;BME280;47923;42.506;24.192;2023-12-14T11:59:31;94637.00;;;12.96;58.75
61961;BME280;47923;42.506;24.192;2023-12-14T12:01:58;94630.41;;;13.00;58.53
61961;BME280;47923;42.506;24.192;2023-12-14T12:04:24;94535.81;;;12.22;57.85
61961;BME280;47923;42.506;24.192;2023-12-14T12:12:05;94506.84;;;12.01;57.33
61961;BME280;47923;42.506;24.192;2023-12-14T12:14:30;94617.75;;;12.65;58.71
61961;BME280;47923;42.506;24.192;2023-12-14T12:16:56;94423.75;;;11.66;58.53
61961;BME280;47923;42.506;24.192;2023-12-14T12:19:22;94622.63;;;13.10;57.99
61961;BME280;47923;42.506;24.192;2023-12-14T12:21:47;94611.38;;;13.11;58.40
61961;BME280;47923;42.506;24.192;2023-12-14T12:24:13;94507.88;;;12.50;58.46
61961;BME280;47923;42.506;24.192;2023-12-14T12:26:38;94267.06;;;10.98;57.36
61961;BME280;47923;42.506;24.192;2023-12-14T12:29:04;94021.91;;;9.01;57.92
61961;BME280;47923;42.506;24.192;2023-12-14T12:31:31;94628.44;;;13.08;59.04
61961;BME280;47923;42.506;24.192;2023-12-14T12:33:57;94637.00;;;12.96;58.26
61961;BME280;47923;42.506;24.192;2023-12-14T12:36:22;94647.81;;;12.99;58.24
61961;BME280;47923;42.506;24.192;2023-12-14T12:38:48;94652.50;;;12.92;58.22
61961;BME280;47923;42.506;24.192;2023-12-14T12:41:13;94524.22;;;12.04;58.37
61961;BME280;47923;42.506;24.192;2023-12-14T12:43:38;94645.59;;;12.80;58.43
61961;BME280;47923;42.506;24.192;2023-12-14T12:46:04;94499.13;;;11.78;58.98
61961;BME280;47923;42.506;24.192;2023-12-14T12:48:30;94652.22;;;12.47;60.26